Timber, Oregon
Current Conditions -  °F | °C
As of 10:53 AM on Tuesday 27 Jan 2015 (Local Time) from KSPB Reporting Station
Haze Haze  
Wind Chill: 43°   Ceiling: 300
Heat Index: 45°   Visibility: 6mi
Dew Point: 44°   Wind: 5mph
Humidity: 97%   Direction: 140°SE
Pressure: 30.14"   Gusts: NA
Location:  45.72°N, 123.3°W
Report Text: KSPB 271853Z AUTO 14004KT 6SM BR OVC003 07/07 A3014 RMK AO2 SLP207 T00720067
Loading
Personal Weather Stations






























Interactive Weather Map New forecast layout! Learn more

10-Day Weather Forecast

Advertisements
Track Severe Weather on mobile